Klaus Kuhn

Scout - Mainz 05
3 Apr 2027
Samstag
Verarbeitung

Persönlichkeit

Anpassungsfähigkeit (16) Ehrgeiz (5) Kontroverse (4) Loyalität (3) Druck (1) Professionalität (9) Fairness (15) Temperament (14)

Profil

Trainerstil Demokratisch
Lizenz Nationale B
Entschlossenheit 13
Menschenführung 11
Motivation 8
Disziplin 7
Arbeitszufriedenheit
50%
Ermüdung
0%
Rolle Scout
Gehalt 80.4K p/W
Vertrag 14.03.2028

Leistung

Verhalten Normal
Trainingseffektivität
26%
Spielerentwicklung
35%
Verletzungsprävention
55%
Taktische Umsetzung
30%

Letzte Ereignisse

Spieler begutachtet jetzt
Nahm an einer Scouting-Besprechung teil jetzt
Spieler begutachtet jetzt
Nahm an einer Scouting-Besprechung teil 7T her
Spieler begutachtet 7T her
Spieler begutachtet 7T her
Spieler begutachtet 7T her
Spieler begutachtet 7T her

Aktuell beobachtet

104
Spieler Verein Status Fähigkeit Vertrauen Beobachtet Zuletzt beobachtet Letzte Stimme
Andrea Giorgini Südtirol Aktiv 127 / 136 40% 1 02.04.2027 -
Nacer Tielemans Mouscron Aktiv 133 / 144 40% 1 02.04.2027 -
Frans Krätzig Red Bull Salzburg Aktiv 126 / 141 40% 1 02.04.2027 -
Rocco Vata Watford Aktiv 124 / 132 40% 3 31.03.2027 -
Rafiu Durosinmi Racing Genk Aktiv 135 / 133 40% 1 31.03.2027 -
José Bica Leixões Aktiv 103 / 103 40% 1 31.03.2027 -
Derry Scherhant SC Freiburg Aktiv 122 / 123 40% 4 30.03.2027 -
Abdoulie Ceesay St. Pauli Aktiv 109 / 121 40% 1 30.03.2027 -
Josh Coburn Millwall Aktiv 121 / 116 40% 1 30.03.2027 -
Marezi Portsmouth Aktiv 126 / 131 40% 4 29.03.2027 -
Myron van Brederode KV Mechelen Aktiv 124 / 119 40% 1 29.03.2027 -
David Romero Parma Aktiv 127 / 136 40% 1 29.03.2027 -
Festy Ebosele Basaksehir Aktiv 133 / 143 40% 4 28.03.2027 -
Beni Mukendi Vitoria Guimaraes Aktiv 131 / 131 40% 3 28.03.2027 -
Chuki Werder Bremen Aktiv 124 / 112 40% 2 28.03.2027 -
Cristian Shpendi Cesena Aktiv 133 / 140 40% 1 28.03.2027 -
Jonathan Rowe Bologna Aktiv 136 / 141 40% 1 28.03.2027 -
Stije Resink AZ Aktiv 128 / 127 40% 1 28.03.2027 -
Herba Guirassy Monaco Aktiv 127 / 122 40% 1 24.03.2027 -
Markus Jensen Nacional Aktiv 101 / 103 40% 1 24.03.2027 -
Omar Campos Cruz Azul Aktiv 117 / 122 40% 4 23.03.2027 -
Mamadou Coulibaly Al Jazira Aktiv 132 / 126 40% 1 23.03.2027 -
Andrew Omobamidele RC Strasbourg Aktiv 129 / 135 40% 2 22.03.2027 -
Metinho Basel Aktiv 130 / 131 40% 1 22.03.2027 -
Victor Parada Spartak Moscow Aktiv 118 / 104 40% 1 22.03.2027 -
Chupete Málaga Aktiv 128 / 140 40% 3 21.03.2027 -
Freddie Draper Lincoln City Aktiv 106 / 121 40% 1 21.03.2027 -
Bright Arrey-Mbi Braga Aktiv 138 / 128 40% 1 21.03.2027 -
Toby Vanaken KV Oostende Aktiv 123 / 131 40% 1 21.03.2027 -
García Pascual Cádiz Aktiv 125 / 112 40% 5 19.03.2027 -
Suleman Sani RB Leipzig Aktiv 120 / 127 40% 2 19.03.2027 -
Siyabonga Mokoena SuperSport United Aktiv 100 / 85 40% 1 19.03.2027 -
Sabil Hansen Randers Aktiv 110 / 110 40% 1 19.03.2027 -
Matteo Dams Club Brugge Aktiv 127 / 139 40% 1 18.03.2027 -
Freddie Potts Club Brugge Aktiv 137 / 126 40% 2 17.03.2027 -
Axel Tape Bayer Leverkusen Aktiv 118 / 140 40% 1 17.03.2027 -
Ilay Camara Anderlecht Aktiv 127 / 134 40% 1 17.03.2027 -
Chris Rigg Sunderland Aktiv 128 / 143 40% 1 15.03.2027 -
Mattia Rutigliano Pro Vercelli Aktiv 103 / 107 40% 1 15.03.2027 -
Luis Fernando Santa Clara Aktiv 106 / 104 40% 1 15.03.2027 -
Taichi Fukui Arouca Aktiv 127 / 128 40% 1 15.03.2027 -
Gustavo Puerta Racing Santander Aktiv 141 / 141 40% 1 15.03.2027 -
Pedro Henrique Shakhtar Aktiv 142 / 122 40% 2 14.03.2027 -
Arsène Kouassi FC Lorient Aktiv 124 / 139 40% 1 12.03.2027 -
Mattia Zanotti Lugano Aktiv 125 / 128 40% 2 11.03.2027 -
Eduardo Fernandes Benfica Aktiv 105 / 113 40% 2 10.03.2027 -
Elijah Dijkstra Feyenoord Aktiv 124 / 116 40% 2 10.03.2027 -
Arkaitz Mariezkurrena Real Sociedad Aktiv 116 / 132 40% 1 10.03.2027 -
André Miranda Porto Aktiv 104 / 95 40% 1 09.03.2027 -
Alexander Røssing-Lelesiit Hamburger SV Aktiv 106 / 111 40% 1 09.03.2027 -
Matheus Gonçalves Al-Ahli Aktiv 122 / 120 40% 1 09.03.2027 -
Felipe Augusto Zenit Aktiv 125 / 116 40% 2 07.03.2027 -
Ekain Orobengoa Real Sociedad Aktiv 101 / 110 40% 1 06.03.2027 -
Olívio Tomé Benfica Aktiv 106 / 119 40% 1 05.03.2027 -
Richard Koné Queens Park Rangers Aktiv 122 / 120 40% 2 03.03.2027 -
Maurits Kjærgaard Red Bull Salzburg Aktiv 126 / 120 40% 1 03.03.2027 -
Carlos Martín Atlético Madrid Aktiv 131 / 130 40% 1 02.03.2027 -
Thomas Kastanaras FC Augsburg Aktiv 103 / 116 40% 1 02.03.2027 -
Pedro Zenit Aktiv 134 / 120 40% 1 01.03.2027 -
Luís Guilherme Sporting CP Aktiv 122 / 126 40% 1 01.03.2027 -
Eliesse Ben Seghir Bayer Leverkusen Verloren 137 / 125 76% 1 18.01.2027 Befürworten
Michy Fellaini KV Oostende Aktiv 134 / 137 40% 2 28.12.2026 -
Cesar Corona Veracruz Aktiv 130 / 134 40% 4 24.12.2026 -
Terem Moffi Hamburger SV Aktiv 125 / 138 40% 2 24.12.2026 -
Mateo Fernández Angusht Aktiv 83 / 68 40% 1 24.12.2026 -
Exequiel Zeballos Boca Juniors Aktiv 138 / 136 40% 2 23.12.2026 -
Brayan León Mamelodi Sundowns Aktiv 109 / 120 40% 1 21.12.2026 -
Fiete Arp OB Aktiv 127 / 130 40% 1 21.12.2026 -
Luca Orellano Monterrey Verloren 138 / 133 40% 2 16.12.2026 -
Philippe Keny Zurich Aktiv 120 / 131 40% 3 16.12.2026 -
Josias Lukembila Sion Aktiv 121 / 113 40% 4 14.12.2026 -
Matteo di Giusto Luzern Aktiv 120 / 118 40% 3 12.12.2026 -
Marcos Paulo Juventude Aktiv 122 / 115 40% 1 12.12.2026 -
Ousmane Camara Castellón Aktiv 124 / 131 40% 1 12.12.2026 -
Adriano Bertaccini Anderlecht Aktiv 122 / 127 40% 3 28.11.2026 -
Luciano Gondou CSKA Moscow Aktiv 135 / 145 40% 2 25.11.2026 -
Kaio Jorge Cruzeiro Aktiv 138 / 129 40% 1 25.11.2026 -
Álex Forés Burgos Aktiv 132 / 117 40% 1 23.11.2026 -
Juan-José Perea Zurich Aktiv 123 / 118 40% 1 23.11.2026 -
Tadeo Allende Inter Miami CF Aktiv 121 / 135 40% 1 19.11.2026 -
Maurits Kjærgaard Red Bull Salzburg Verloren 128 / 144 40% 2 12.11.2026 -
Ozziel Herrera Tigres Aktiv 133 / 136 40% 1 12.11.2026 -
Andrin Hunziker St. Gallen Aktiv 105 / 112 40% 3 08.11.2026 -
Ignacio Russo Tigre Aktiv 123 / 117 40% 1 30.10.2026 -
Yoshan Valois Lanús Aktiv 113 / 118 40% 1 30.10.2026 -
Ilyas Chouaref Sion Aktiv 119 / 131 40% 1 28.10.2026 -
Louis Munteanu DC United Aktiv 117 / 140 40% 3 23.10.2026 -
Alexander Díaz Deportivo Riestra Aktiv 113 / 131 40% 1 23.10.2026 -
Yorbe Vertessen Red Bull Salzburg Aktiv 129 / 136 40% 1 23.10.2026 -
Danylo Sikan Anderlecht Aktiv 123 / 136 40% 1 19.10.2026 -
Tomás Chancalay Minnesota United FC Aktiv 134 / 126 40% 1 19.10.2026 -
Dejan Djokic Vaduz Aktiv 97 / 87 40% 1 19.10.2026 -
Juan Manuel Boselli Krasnodar Aktiv 120 / 111 40% 1 15.10.2026 -
Sinan Karweina Luzern Aktiv 114 / 102 40% 1 15.10.2026 -
Dylan Gorosito Boca Juniors Aktiv 104 / 125 40% 1 08.09.2026 -
Alejo Gelsomino Gimnasia La Plata Aktiv 103 / 114 40% 1 08.09.2026 -
Santino Piccinetti Huracán Aktiv 99 / 92 40% 1 08.09.2026 -
Yarek Gąsiorowski PSV Aktiv 130 / 148 40% 1 07.09.2026 -
David Santos Daiber Bayern Munich Aktiv 104 / 112 40% 1 07.09.2026 -
Caleb Yirenkyi Coventry City Aktiv 132 / 125 40% 1 16.08.2026 -
Eliás Montiel Pachuca Aktiv 119 / 146 40% 1 16.08.2026 -
Ignacio Perruzzi San Lorenzo Aktiv 113 / 129 40% 1 03.08.2026 -
Elias Baum Eintracht Frankfurt Aktiv 117 / 140 40% 1 03.08.2026 -
John Mellberg Red Bull Salzburg Aktiv 114 / 122 40% 1 03.08.2026 -